createdAt,value
2022-11-21T00:01:29.907Z,99620.69
2022-11-21T00:03:58.143Z,99622.98
2022-11-21T00:06:27.080Z,99623.80
2022-11-21T00:08:56.865Z,99626.20
2022-11-21T00:11:25.138Z,99629.27
2022-11-21T00:13:53.403Z,99627.95
2022-11-21T00:16:21.938Z,99628.60
2022-11-21T00:18:50.032Z,99630.28
2022-11-21T00:21:20.981Z,99627.45
2022-11-21T00:23:49.279Z,99622.14
2022-11-21T00:26:17.851Z,99622.98
2022-11-21T00:28:46.088Z,99619.29
2022-11-21T00:31:24.255Z,99619.17
2022-11-21T00:33:52.489Z,99622.30
2022-11-21T00:36:20.756Z,99627.19
2022-11-21T00:38:48.999Z,99627.78
2022-11-21T00:41:17.185Z,99625.30
2022-11-21T00:43:45.346Z,99623.68
2022-11-21T00:46:13.566Z,99622.48
2022-11-21T00:48:41.635Z,99619.36
2022-11-21T00:51:09.751Z,99615.75
2022-11-21T00:53:38.030Z,99621.15
2022-11-21T00:56:06.149Z,99612.30
2022-11-21T00:58:35.025Z,99607.46
2022-11-21T01:01:09.558Z,99601.27
2022-11-21T01:03:38.299Z,99595.20
2022-11-21T01:06:12.181Z,99594.56
2022-11-21T01:08:50.041Z,99590.60
2022-11-21T01:11:20.322Z,99583.44
2022-11-21T01:13:49.175Z,99581.59
2022-11-21T01:16:21.516Z,99583.89
2022-11-21T01:18:50.618Z,99583.08
2022-11-21T01:21:30.604Z,99580.83
2022-11-21T01:24:03.429Z,99575.42
2022-11-21T01:26:35.295Z,99569.21
2022-11-21T01:29:04.019Z,99569.25
2022-11-21T01:31:32.160Z,99571.67
2022-11-21T01:34:01.110Z,99567.39
2022-11-21T01:36:34.598Z,99570.24
2022-11-21T01:39:06.549Z,99570.10
2022-11-21T01:41:38.978Z,99572.67
2022-11-21T01:44:14.148Z,99567.71
2022-11-21T01:46:42.319Z,99562.96
2022-11-21T01:49:32.749Z,99563.03
2022-11-21T01:52:20.455Z,99565.33
2022-11-21T01:54:56.590Z,99563.77
2022-11-21T01:57:32.838Z,99565.85
2022-11-21T02:00:23.798Z,99563.92
2022-11-21T02:03:04.005Z,99562.88
2022-11-21T02:05:38.258Z,99564.73
2022-11-21T02:08:17.919Z,99562.16
2022-11-21T02:11:16.897Z,99561.98
2022-11-21T02:13:45.115Z,99557.30
2022-11-21T02:16:13.725Z,99554.60
2022-11-21T02:18:41.866Z,99552.40
2022-11-21T02:21:38.015Z,99549.34
2022-11-21T02:24:21.396Z,99550.20
2022-11-21T02:26:50.006Z,99552.45
2022-11-21T02:29:18.262Z,99548.30
2022-11-21T02:31:46.449Z,99546.14
2022-11-21T02:34:14.749Z,99543.60
2022-11-21T02:36:47.239Z,99548.20
2022-11-21T02:39:22.657Z,99553.67
2022-11-21T02:41:57.879Z,99564.85
2022-11-21T02:44:50.533Z,99569.04
2022-11-21T02:47:20.686Z,99562.17
2022-11-21T02:50:07.675Z,99559.33
2022-11-21T02:52:35.655Z,99559.20
2022-11-21T02:55:04.335Z,99563.12
2022-11-21T02:57:32.546Z,99567.88
2022-11-21T03:00:00.779Z,99568.41
2022-11-21T03:02:29.007Z,99566.76
2022-11-21T03:04:57.415Z,99571.16
2022-11-21T03:07:25.671Z,99575.64
2022-11-21T03:09:53.835Z,99574.06
2022-11-21T03:12:22.046Z,99575.47
2022-11-21T03:14:50.254Z,99576.29
2022-11-21T03:17:18.892Z,99583.95
2022-11-21T03:19:47.310Z,99586.02
2022-11-21T03:22:15.515Z,99588.62
2022-11-21T03:24:43.686Z,99591.73
2022-11-21T03:27:12.057Z,99592.47
2022-11-21T03:29:40.218Z,99597.34
2022-11-21T03:32:08.660Z,99601.59
2022-11-21T03:34:37.015Z,99602.30
2022-11-21T03:37:05.675Z,99597.38
2022-11-21T03:39:33.844Z,99593.64
2022-11-21T03:42:02.016Z,99590.66
2022-11-21T03:44:30.285Z,99588.66
2022-11-21T03:46:58.348Z,99589.61
2022-11-21T03:49:26.737Z,99594.17
2022-11-21T03:51:54.958Z,99600.48
2022-11-21T03:54:23.152Z,99602.59
2022-11-21T03:56:51.258Z,99600.48
2022-11-21T03:59:19.358Z,99596.04
2022-11-21T04:01:47.576Z,99592.96
2022-11-21T04:04:15.910Z,99595.85
2022-11-21T04:06:44.119Z,99595.52
2022-11-21T04:09:12.258Z,99592.68
2022-11-21T04:11:40.356Z,99587.59
2022-11-21T04:14:08.305Z,99586.70
2022-11-21T04:16:36.849Z,99589.94
2022-11-21T04:19:05.107Z,99592.45
2022-11-21T04:21:33.250Z,99588.25
2022-11-21T04:24:01.412Z,99587.71
2022-11-21T04:26:29.525Z,99585.44
2022-11-21T04:28:58.001Z,99582.33
2022-11-21T04:31:26.218Z,99578.10
2022-11-21T04:33:54.661Z,99576.98
2022-11-21T04:36:22.819Z,99576.96
2022-11-21T04:38:51.014Z,99572.20
2022-11-21T04:41:19.085Z,99573.01
2022-11-21T04:43:47.256Z,99573.34
2022-11-21T04:46:15.425Z,99577.61
2022-11-21T04:48:43.584Z,99579.88
2022-11-21T04:51:12.055Z,99576.53
2022-11-21T04:53:43.101Z,99574.31
2022-11-21T04:56:11.715Z,99571.44
2022-11-21T04:58:39.979Z,99573.66
2022-11-21T05:01:08.895Z,99565.34
2022-11-21T05:03:37.103Z,99561.04
2022-11-21T05:06:05.369Z,99556.14
2022-11-21T05:08:33.642Z,99559.86
2022-11-21T05:11:20.492Z,99560.68
2022-11-21T05:13:48.765Z,99563.95
2022-11-21T05:16:16.937Z,99565.98
2022-11-21T05:18:44.961Z,99562.55
2022-11-21T05:21:13.207Z,99559.80
2022-11-21T05:23:41.401Z,99566.34
2022-11-21T05:26:09.615Z,99569.15
2022-11-21T05:28:37.861Z,99567.35
2022-11-21T05:31:06.176Z,99571.33
2022-11-21T05:33:34.324Z,99569.29
2022-11-21T05:36:05.608Z,99568.27
2022-11-21T05:38:33.772Z,99562.90
2022-11-21T05:41:01.965Z,99556.48
2022-11-21T05:44:02.369Z,99555.56
2022-11-21T05:46:30.735Z,99567.83
2022-11-21T05:48:59.285Z,99562.87
2022-11-21T05:51:27.459Z,99564.78
2022-11-21T05:53:55.636Z,99571.27
2022-11-21T05:56:23.670Z,99575.38
2022-11-21T05:58:52.230Z,99576.92
2022-11-21T06:01:40.357Z,99576.81
2022-11-21T06:04:09.415Z,99575.26
2022-11-21T06:06:37.641Z,99571.02
2022-11-21T06:09:05.933Z,99571.65
2022-11-21T06:11:34.263Z,99573.84
2022-11-21T06:14:02.364Z,99572.09
2022-11-21T06:16:30.379Z,99572.23
2022-11-21T06:18:59.052Z,99571.21
2022-11-21T06:21:29.677Z,99571.84
2022-11-21T06:23:59.332Z,99572.67
2022-11-21T06:26:28.406Z,99568.14
2022-11-21T06:28:56.799Z,99559.96
2022-11-21T06:31:27.119Z,99559.32
2022-11-21T06:33:57.476Z,99564.70
2022-11-21T06:36:26.541Z,99571.05
2022-11-21T06:38:57.162Z,99565.21
2022-11-21T06:41:30.500Z,99564.65
2022-11-21T06:44:03.183Z,99566.46
2022-11-21T06:46:31.351Z,99565.48
2022-11-21T06:48:59.548Z,99561.49
2022-11-21T06:51:27.735Z,99559.21
2022-11-21T06:53:57.885Z,99564.16
2022-11-21T06:56:28.809Z,99572.52
2022-11-21T06:58:57.384Z,99577.49
2022-11-21T07:01:26.056Z,99581.13
2022-11-21T07:03:55.155Z,99584.01
2022-11-21T07:06:24.126Z,99587.08
2022-11-21T07:11:43.277Z,99583.70
2022-11-21T07:14:11.496Z,99581.66
2022-11-21T07:16:39.694Z,99578.89
2022-11-21T07:19:07.948Z,99580.31
2022-11-21T07:21:36.056Z,99576.71
2022-11-21T07:24:04.589Z,99567.47
2022-11-21T07:26:32.876Z,99559.86
2022-11-21T07:29:01.198Z,99560.55
2022-11-21T07:31:29.398Z,99564.14
2022-11-21T07:33:57.592Z,99559.69
2022-11-21T07:36:26.037Z,99555.39
2022-11-21T07:38:54.306Z,99551.25
2022-11-21T07:41:22.357Z,99556.77
2022-11-21T07:43:50.473Z,99553.77
2022-11-21T07:46:18.858Z,99548.98
2022-11-21T07:48:47.094Z,99546.83
2022-11-21T07:51:15.276Z,99546.64
2022-11-21T07:53:43.487Z,99544.73
2022-11-21T07:56:11.492Z,99550.35
2022-11-21T07:58:39.576Z,99550.64
2022-11-21T08:01:07.826Z,99547.87
2022-11-21T08:03:35.906Z,99549.48
2022-11-21T08:06:05.364Z,99549.29
2022-11-21T08:08:33.453Z,99545.47
2022-11-21T08:11:05.971Z,99541.92
2022-11-21T08:13:36.612Z,99540.96
2022-11-21T08:16:05.383Z,99548.20
2022-11-21T08:18:33.539Z,99554.83
2022-11-21T08:21:05.106Z,99561.16
2022-11-21T08:23:33.168Z,99566.20
2022-11-21T08:26:01.711Z,99563.29
2022-11-21T08:28:29.815Z,99559.46
2022-11-21T08:30:57.872Z,99558.95
2022-11-21T08:33:25.888Z,99551.77
2022-11-21T08:35:54.007Z,99561.52
2022-11-21T08:38:22.103Z,99569.23
2022-11-21T08:41:17.445Z,99571.52
2022-11-21T08:43:45.890Z,99563.23
2022-11-21T08:46:13.931Z,99560.34
2022-11-21T08:48:41.886Z,99561.63
2022-11-21T08:51:09.931Z,99562.52
2022-11-21T08:53:38.032Z,99555.98
2022-11-21T08:56:06.169Z,99557.59
2022-11-21T08:58:34.293Z,99554.67
2022-11-21T09:01:02.349Z,99553.85
2022-11-21T09:03:31.491Z,99555.33
2022-11-21T09:06:00.431Z,99544.86
2022-11-21T09:08:29.751Z,99544.36
2022-11-21T09:10:59.033Z,99542.42
2022-11-21T09:13:27.767Z,99535.27
2022-11-21T09:16:20.394Z,99537.22
2022-11-21T09:18:52.856Z,99536.52
2022-11-21T09:21:22.092Z,99541.98
2022-11-21T09:23:52.770Z,99545.48
2022-11-21T09:26:20.812Z,99536.70
2022-11-21T09:28:48.786Z,99532.61
2022-11-21T09:31:16.827Z,99534.69
2022-11-21T09:33:44.920Z,99543.34
2022-11-21T09:36:15.890Z,99539.98
2022-11-21T09:38:44.187Z,99532.55
2022-11-21T09:41:54.285Z,99529.05
2022-11-21T09:44:40.675Z,99536.48
2022-11-21T09:47:19.243Z,99538.02
2022-11-21T09:49:53.917Z,99537.85
2022-11-21T09:52:31.821Z,99536.46
2022-11-21T09:55:05.167Z,99524.27
2022-11-21T09:57:35.954Z,99515.20
2022-11-21T10:00:16.091Z,99508.41
2022-11-21T10:02:47.342Z,99500.33
2022-11-21T10:05:17.493Z,99499.54
2022-11-21T10:07:51.794Z,99490.30
2022-11-21T10:10:42.474Z,99491.20
2022-11-21T10:13:13.275Z,99485.34
2022-11-21T10:16:02.556Z,99479.64
2022-11-21T10:18:58.866Z,99482.02
2022-11-21T10:21:32.878Z,99486.02
2022-11-21T10:24:41.311Z,99483.21
2022-11-21T10:27:27.157Z,99475.36
2022-11-21T10:30:20.797Z,99476.10
2022-11-21T10:32:58.579Z,99478.80
2022-11-21T10:35:50.524Z,99473.77
2022-11-21T10:38:24.059Z,99468.56
2022-11-21T10:41:03.986Z,99467.36
2022-11-21T10:43:59.928Z,99473.34
2022-11-21T10:46:27.989Z,99470.89
2022-11-21T10:49:02.892Z,99469.48
2022-11-21T10:51:53.353Z,99469.36
2022-11-21T10:54:33.433Z,99468.09
2022-11-21T10:57:14.218Z,99472.96
2022-11-21T11:00:00.847Z,99478.45
2022-11-21T11:02:29.031Z,99477.39
2022-11-21T11:05:16.154Z,99478.50
2022-11-21T11:08:01.524Z,99478.96
2022-11-21T11:10:30.416Z,99479.04
2022-11-21T11:13:44.427Z,99475.45
2022-11-21T11:16:16.441Z,99480.91
2022-11-21T11:18:55.789Z,99477.42
2022-11-21T11:21:27.776Z,99476.16
2022-11-21T11:24:09.311Z,99475.48
2022-11-21T11:26:49.739Z,99477.88
2022-11-21T11:29:31.079Z,99477.08
2022-11-21T11:31:59.394Z,99478.38
2022-11-21T11:34:38.325Z,99476.86
2022-11-21T11:37:20.651Z,99474.42
2022-11-21T11:40:07.607Z,99478.30
2022-11-21T11:43:02.453Z,99480.63
2022-11-21T11:46:08.198Z,99476.77
2022-11-21T11:49:03.767Z,99471.83
2022-11-21T11:51:48.358Z,99467.05
2022-11-21T11:54:23.751Z,99464.38
2022-11-21T11:56:52.386Z,99460.23
2022-11-21T11:59:20.364Z,99456.74
2022-11-21T12:02:16.845Z,99455.77
2022-11-21T12:04:54.121Z,99455.31
2022-11-21T12:08:33.074Z,99456.13
2022-11-21T12:11:01.084Z,99455.28
2022-11-21T12:13:31.566Z,99448.88
2022-11-21T12:16:13.679Z,99445.23
2022-11-21T12:18:52.576Z,99436.36
2022-11-21T12:21:21.167Z,99435.06
2022-11-21T12:23:53.763Z,99435.67
2022-11-21T12:26:21.678Z,99431.88
2022-11-21T12:29:20.781Z,99427.16
2022-11-21T12:32:19.848Z,99428.03
2022-11-21T12:35:00.048Z,99427.22
2022-11-21T12:37:47.263Z,99425.06
2022-11-21T12:40:48.469Z,99424.58
2022-11-21T12:43:42.382Z,99423.09
2022-11-21T12:46:21.070Z,99420.60
2022-11-21T12:49:17.182Z,99418.02
2022-11-21T12:52:27.249Z,99413.63
2022-11-21T12:54:57.977Z,99414.94
2022-11-21T12:57:49.331Z,99414.63
2022-11-21T13:00:29.871Z,99413.77
2022-11-21T13:03:13.206Z,99408.09
2022-11-21T13:05:47.078Z,99405.08
2022-11-21T13:08:24.233Z,99399.20
2022-11-21T13:11:25.663Z,99398.77
2022-11-21T13:14:04.960Z,99393.38
2022-11-21T13:16:37.042Z,99390.33
2022-11-21T13:19:26.503Z,99389.77
2022-11-21T13:21:55.135Z,99377.08
2022-11-21T13:24:44.891Z,99374.57
2022-11-21T13:27:36.548Z,99370.70
2022-11-21T13:30:06.668Z,99367.57
2022-11-21T13:32:42.795Z,99369.05
2022-11-21T13:35:16.783Z,99374.14
2022-11-21T13:38:08.616Z,99377.20
2022-11-21T13:40:39.904Z,99377.19
2022-11-21T13:43:32.589Z,99376.55
2022-11-21T13:46:01.346Z,99378.29
2022-11-21T13:48:32.222Z,99374.50
2022-11-21T13:51:19.041Z,99371.20
2022-11-21T13:53:59.196Z,99371.54
2022-11-21T13:56:58.927Z,99371.30
2022-11-21T13:59:51.802Z,99366.98
2022-11-21T14:03:01.957Z,99368.73
2022-11-21T14:06:05.253Z,99365.23
2022-11-21T14:08:34.237Z,99364.55
2022-11-21T14:11:30.190Z,99370.12
2022-11-21T14:13:58.367Z,99371.11
2022-11-21T14:16:44.047Z,99365.75
2022-11-21T14:19:24.532Z,99360.20
2022-11-21T14:21:52.694Z,99365.54
2022-11-21T14:24:24.817Z,99365.77
2022-11-21T14:26:54.187Z,99370.83
2022-11-21T14:29:41.136Z,99368.61
2022-11-21T14:32:15.214Z,99370.77
2022-11-21T14:34:43.500Z,99368.70
2022-11-21T14:37:13.177Z,99368.77
2022-11-21T14:39:44.699Z,99369.29
2022-11-21T14:42:16.979Z,99371.44
2022-11-21T14:44:46.559Z,99372.84
2022-11-21T14:47:23.094Z,99372.17
2022-11-21T14:50:00.853Z,99369.11
2022-11-21T14:52:34.202Z,99372.95
2022-11-21T14:57:54.599Z,99371.09
2022-11-21T15:03:25.324Z,99369.55
2022-11-21T15:06:07.444Z,99366.83
2022-11-21T15:11:40.129Z,99371.20
2022-11-21T15:14:37.606Z,99370.02
2022-11-21T15:17:10.921Z,99370.52
2022-11-21T15:19:41.569Z,99368.63
2022-11-21T15:22:28.658Z,99373.67
2022-11-21T15:25:17.796Z,99369.00
2022-11-21T15:27:47.913Z,99376.25
2022-11-21T15:30:18.806Z,99370.55
2022-11-21T15:33:07.115Z,99370.06
2022-11-21T15:35:37.987Z,99369.11
2022-11-21T15:38:30.586Z,99362.67
2022-11-21T15:41:29.732Z,99362.08
2022-11-21T15:44:00.863Z,99369.25
2022-11-21T15:46:34.719Z,99365.73
2022-11-21T15:49:31.028Z,99366.99
2022-11-21T15:52:10.633Z,99369.35
2022-11-21T15:54:38.737Z,99365.71
2022-11-21T15:57:07.011Z,99365.75
2022-11-21T15:59:35.107Z,99362.08
2022-11-21T16:02:03.603Z,99360.88
2022-11-21T16:04:31.883Z,99372.29
2022-11-21T16:07:00.589Z,99367.49
2022-11-21T16:09:29.876Z,99369.59
2022-11-21T16:11:58.766Z,99367.10
2022-11-21T16:14:26.806Z,99363.17
2022-11-21T16:16:54.899Z,99359.29
2022-11-21T16:19:23.002Z,99360.30
2022-11-21T16:21:51.021Z,99364.70
2022-11-21T16:24:19.124Z,99366.13
2022-11-21T16:26:47.190Z,99364.50
2022-11-21T16:29:15.292Z,99361.92
2022-11-21T16:31:43.190Z,99357.88
2022-11-21T16:34:11.341Z,99364.64
2022-11-21T16:36:39.364Z,99362.89
2022-11-21T16:39:12.329Z,99363.10
2022-11-21T16:41:45.977Z,99361.93
2022-11-21T16:44:15.984Z,99363.20
2022-11-21T16:46:47.392Z,99365.42
2022-11-21T16:49:15.388Z,99361.33
2022-11-21T16:51:43.675Z,99360.73
2022-11-21T16:54:11.721Z,99354.85
2022-11-21T16:56:39.734Z,99356.38
2022-11-21T16:59:08.081Z,99359.89
2022-11-21T17:01:36.272Z,99356.18
2022-11-21T17:04:04.837Z,99354.80
2022-11-21T17:06:33.007Z,99346.95
2022-11-21T17:09:02.469Z,99346.77
2022-11-21T17:11:31.594Z,99350.36
2022-11-21T17:14:07.210Z,99352.52
2022-11-21T17:16:36.157Z,99352.84
2022-11-21T17:19:05.005Z,99353.73
2022-11-21T17:21:34.260Z,99347.85
2022-11-21T17:24:02.391Z,99349.42
2022-11-21T17:26:30.790Z,99348.93
2022-11-21T17:29:01.176Z,99341.70
2022-11-21T17:31:29.996Z,99344.40
2022-11-21T17:34:01.377Z,99342.71
2022-11-21T17:36:30.996Z,99338.02
2022-11-21T17:38:59.105Z,99337.73
2022-11-21T17:41:27.803Z,99343.88
2022-11-21T17:43:57.697Z,99343.63
2022-11-21T17:46:27.325Z,99341.67
2022-11-21T17:48:58.813Z,99343.70
2022-11-21T17:51:34.627Z,99345.59
2022-11-21T17:54:03.093Z,99348.38
2022-11-21T17:56:34.442Z,99342.21
2022-11-21T17:59:03.281Z,99347.31
2022-11-21T18:01:34.247Z,99350.55
2022-11-21T18:04:13.376Z,99346.80
2022-11-21T18:06:43.682Z,99348.70
2022-11-21T18:09:13.130Z,99341.20
2022-11-21T18:11:42.018Z,99338.06
2022-11-21T18:14:12.309Z,99334.52
2022-11-21T18:16:46.071Z,99333.39
2022-11-21T18:19:18.626Z,99335.30
2022-11-21T18:21:46.829Z,99332.88
2022-11-21T18:24:15.050Z,99335.19
2022-11-21T18:26:43.123Z,99337.50
2022-11-21T18:31:59.780Z,99333.02
2022-11-21T18:34:27.977Z,99330.98
2022-11-21T18:36:56.248Z,99333.17
2022-11-21T18:39:25.369Z,99337.89
2022-11-21T18:41:53.767Z,99342.38
2022-11-21T18:44:22.835Z,99339.86
2022-11-21T18:46:51.837Z,99348.31
2022-11-21T18:49:20.212Z,99341.69
2022-11-21T18:51:48.754Z,99344.15
2022-11-21T18:54:17.480Z,99340.67
2022-11-21T18:56:47.414Z,99337.98
2022-11-21T18:59:15.917Z,99339.17
2022-11-21T19:01:44.240Z,99343.94
2022-11-21T19:04:12.708Z,99342.05
2022-11-21T19:06:40.980Z,99341.78
2022-11-21T19:09:09.561Z,99340.11
2022-11-21T19:11:37.720Z,99343.56
2022-11-21T19:14:06.129Z,99348.85
2022-11-21T19:16:34.721Z,99354.09
2022-11-21T19:22:01.849Z,99351.77
2022-11-21T19:24:30.291Z,99348.91
2022-11-21T19:26:58.442Z,99352.16
2022-11-21T19:29:26.975Z,99351.89
2022-11-21T19:31:56.204Z,99351.41
2022-11-21T19:34:24.405Z,99354.27
2022-11-21T19:36:53.270Z,99356.37
2022-11-21T19:39:21.537Z,99361.31
2022-11-21T19:41:49.696Z,99358.80
2022-11-21T19:44:18.164Z,99361.44
2022-11-21T19:46:46.617Z,99358.80
2022-11-21T19:49:16.762Z,99357.29
2022-11-21T19:51:45.312Z,99357.50
2022-11-21T19:54:15.979Z,99355.77
2022-11-21T19:56:44.426Z,99358.20
2022-11-21T19:59:13.842Z,99361.42
2022-11-21T20:01:42.219Z,99357.66
2022-11-21T20:04:11.615Z,99358.05
2022-11-21T20:06:43.179Z,99362.41
2022-11-21T20:09:17.976Z,99361.77
2022-11-21T20:11:49.073Z,99372.23
2022-11-21T20:14:22.859Z,99373.98
2022-11-21T20:16:54.523Z,99375.29
2022-11-21T20:19:24.877Z,99372.95
2022-11-21T20:21:54.380Z,99374.57
2022-11-21T20:24:22.797Z,99383.52
2022-11-21T20:26:51.258Z,99385.58
2022-11-21T20:29:19.688Z,99391.58
2022-11-21T20:31:48.622Z,99387.91
2022-11-21T20:34:16.842Z,99390.13
2022-11-21T20:36:46.813Z,99394.40
2022-11-21T20:39:18.321Z,99392.80
2022-11-21T20:41:48.437Z,99390.94
2022-11-21T20:47:09.778Z,99392.11
2022-11-21T20:49:38.512Z,99391.05
2022-11-21T20:53:43.913Z,99392.39
2022-11-21T20:54:55.396Z,99394.11
2022-11-21T20:57:23.586Z,99391.52
2022-11-21T20:59:52.045Z,99387.40
2022-11-21T21:02:20.273Z,99385.92
2022-11-21T21:04:48.561Z,99384.66
2022-11-21T21:07:17.166Z,99381.25
2022-11-21T21:09:45.287Z,99379.54
2022-11-21T21:12:13.547Z,99385.61
2022-11-21T21:14:41.515Z,99390.42
2022-11-21T21:17:09.724Z,99385.80
2022-11-21T21:19:37.907Z,99391.18
2022-11-21T21:22:06.588Z,99393.66
2022-11-21T21:24:34.620Z,99396.80
2022-11-21T21:27:02.770Z,99396.42
2022-11-21T21:29:31.635Z,99400.63
2022-11-21T21:32:00.329Z,99394.23
2022-11-21T21:34:29.107Z,99393.85
2022-11-21T21:36:58.788Z,99394.52
2022-11-21T21:39:27.574Z,99391.72
2022-11-21T21:41:55.827Z,99393.89
2022-11-21T21:44:28.348Z,99397.48
2022-11-21T21:47:00.264Z,99399.20
2022-11-21T21:49:28.660Z,99401.79
2022-11-21T21:51:57.326Z,99406.77
2022-11-21T21:54:25.534Z,99405.20
2022-11-21T21:56:53.729Z,99408.58
2022-11-21T21:59:21.915Z,99401.91
2022-11-21T22:01:50.237Z,99406.58
2022-11-21T22:04:18.458Z,99408.67
2022-11-21T22:06:46.699Z,99408.78
2022-11-21T22:09:15.017Z,99411.76
2022-11-21T22:11:43.492Z,99406.95
2022-11-21T22:14:15.125Z,99407.45
2022-11-21T22:16:43.688Z,99405.40
2022-11-21T22:19:11.914Z,99407.33
2022-11-21T22:21:40.281Z,99407.33
2022-11-21T22:24:30.004Z,99404.48
2022-11-21T22:26:58.326Z,99401.36
2022-11-21T22:29:26.590Z,99399.12
2022-11-21T22:31:54.691Z,99394.60
2022-11-21T22:34:23.049Z,99394.83
2022-11-21T22:36:51.422Z,99397.87
2022-11-21T22:39:20.262Z,99398.78
2022-11-21T22:41:48.654Z,99403.80
2022-11-21T22:44:16.741Z,99404.64
2022-11-21T22:46:44.945Z,99408.05
2022-11-21T22:49:13.168Z,99412.66
2022-11-21T22:51:41.248Z,99411.14
2022-11-21T22:54:09.618Z,99407.23
2022-11-21T22:56:37.819Z,99407.09
2022-11-21T22:59:06.075Z,99407.54
2022-11-21T23:01:34.908Z,99405.88
2022-11-21T23:04:03.518Z,99405.45
2022-11-21T23:06:31.767Z,99405.48
2022-11-21T23:09:00.186Z,99410.77
2022-11-21T23:11:39.254Z,99412.36
2022-11-21T23:14:09.206Z,99410.56
2022-11-21T23:16:37.433Z,99413.98
2022-11-21T23:19:05.675Z,99411.47
2022-11-21T23:21:34.327Z,99415.02
2022-11-21T23:24:02.517Z,99413.96
2022-11-21T23:26:30.711Z,99415.95
2022-11-21T23:29:01.299Z,99415.48
2022-11-21T23:31:34.016Z,99418.31
2022-11-21T23:34:02.363Z,99415.95
2022-11-21T23:36:30.680Z,99413.78
2022-11-21T23:38:58.916Z,99412.66
2022-11-21T23:41:27.275Z,99412.44
2022-11-21T23:43:55.506Z,99413.00
2022-11-21T23:46:23.732Z,99402.52
2022-11-21T23:48:52.049Z,99399.61
2022-11-21T23:51:20.435Z,99398.01
2022-11-21T23:53:48.583Z,99398.09
2022-11-21T23:56:17.296Z,99398.21
2022-11-21T23:58:45.364Z,99403.41
